Time;durP1;ratioP1;P1;durP2;ratioP2;P2;SDS_P1;SDS_P2;PMS_P1;PMS_P2;Temp;Humidity;BMP_temperature;BMP_pressure;BME280_temperature;BME280_humidity;BME280_pressure;Samples;Min_cycle;Max_cycle;Signal;HPM_P1;HPM_P2
2021/04/02 00:00:13;;;;;;;15.46;8.13;;;;;;;11.98;61.14;99666.16;2021974;80;20183;-72
2021/04/02 00:03:21;;;;;;;11.49;6.80;;;;;;;11.93;61.10;99667.94;2028798;79;20196;-72
2021/04/02 00:06:22;;;;;;;10.90;6.53;;;;;;;11.87;61.21;99662.78;2028053;79;20186;-72
2021/04/02 00:09:24;;;;;;;9.25;5.49;;;;;;;11.82;61.29;99669.72;2027367;79;20447;-72
2021/04/02 00:12:26;;;;;;;7.90;5.31;;;;;;;11.77;61.19;99671.44;2027037;79;20174;-72
2021/04/02 00:15:27;;;;;;;9.09;5.21;;;;;;;11.73;61.11;99672.34;2025942;77;22606;-72
2021/04/02 00:18:29;;;;;;;9.29;4.59;;;;;;;11.66;61.48;99674.09;2021750;80;20159;-72
2021/04/02 00:21:31;;;;;;;9.31;4.45;;;;;;;11.61;61.62;99673.25;2022128;80;20283;-72
2021/04/02 00:24:33;;;;;;;8.23;4.16;;;;;;;11.55;61.38;99673.28;2022344;80;20179;-72
2021/04/02 00:27:34;;;;;;;10.01;5.39;;;;;;;11.53;61.58;99672.44;2022125;79;20191;-71
2021/04/02 00:30:45;;;;;;;13.69;6.07;;;;;;;11.48;61.62;99666.34;2022584;77;20174;-72
2021/04/02 00:33:47;;;;;;;11.98;5.49;;;;;;;11.45;61.56;99675.03;2027338;79;20186;-71
2021/04/02 00:36:48;;;;;;;17.67;7.90;;;;;;;11.35;61.86;99673.34;2027812;79;20166;-72
2021/04/02 00:39:50;;;;;;;8.98;4.30;;;;;;;11.31;61.69;99673.34;2027462;79;20190;-72
2021/04/02 00:42:52;;;;;;;11.10;2.92;;;;;;;11.31;61.04;99661.25;2026642;79;20198;-73
2021/04/02 00:45:53;;;;;;;4.94;3.15;;;;;;;11.33;60.39;99663.84;2024751;77;20191;-72
2021/04/02 00:48:55;;;;;;;4.19;2.76;;;;;;;11.34;59.96;99658.63;2022161;80;20175;-72
2021/04/02 00:51:57;;;;;;;3.84;2.70;;;;;;;11.32;59.83;99662.09;2022872;80;20187;-71
2021/04/02 00:54:58;;;;;;;3.91;2.96;;;;;;;11.25;59.86;99668.19;2021800;80;20182;-73
2021/04/02 00:58:00;;;;;;;3.63;2.21;;;;;;;11.15;59.87;99670.81;2021708;80;20224;-73
2021/04/02 01:01:05;;;;;;;5.88;2.40;;;;;;;11.16;59.71;99676.88;2023056;77;21263;-73
2021/04/02 01:04:06;;;;;;;5.75;2.85;;;;;;;11.12;59.73;99672.53;2027094;79;20166;-72
2021/04/02 01:07:08;;;;;;;7.01;2.66;;;;;;;11.06;59.99;99675.16;2026785;79;20722;-72
2021/04/02 01:10:14;;;;;;;7.79;2.80;;;;;;;11.01;59.97;99669.97;2027271;79;20755;-72
2021/04/02 01:13:19;;;;;;;4.30;2.41;;;;;;;10.96;60.33;99682.09;2027100;79;20216;-72
2021/04/02 01:16:30;;;;;;;4.16;2.70;;;;;;;10.81;60.99;99685.59;2023902;77;21213;-72
2021/04/02 01:19:44;;;;;;;4.93;2.76;;;;;;;10.65;61.59;99689.03;2021602;80;20949;-72
2021/04/02 01:22:48;;;;;;;5.26;2.70;;;;;;;10.56;61.81;99692.50;2022396;80;20200;-72
2021/04/02 01:26:01;;;;;;;5.24;2.46;;;;;;;10.52;62.05;99698.56;2021302;80;20216;-73
2021/04/02 01:29:12;;;;;;;5.40;2.99;;;;;;;10.45;62.17;99699.44;2022170;80;20188;-71
2021/04/02 01:32:17;;;;;;;4.89;2.53;;;;;;;10.40;62.44;99695.94;2024407;79;21525;-72
2021/04/02 01:35:37;;;;;;;6.32;2.49;;;;;;;10.36;62.32;99708.91;2027101;79;20204;-71
2021/04/02 01:38:41;;;;;;;3.44;2.06;;;;;;;10.33;62.18;99703.72;2027548;80;20178;-72
2021/04/02 01:41:46;;;;;;;4.36;1.98;;;;;;;10.28;61.65;99704.59;2026944;80;20626;-73
2021/04/02 01:44:50;;;;;;;4.72;2.55;;;;;;;10.23;61.64;99708.03;2027122;79;20804;-72
2021/04/02 01:47:54;;;;;;;7.80;2.90;;;;;;;10.20;61.56;99708.84;2021040;78;20225;-71
2021/04/02 01:50:58;;;;;;;8.81;2.58;;;;;;;10.18;61.61;99714.91;2022228;80;20838;-73
2021/04/02 01:54:03;;;;;;;4.09;2.09;;;;;;;10.08;61.43;99707.97;2021441;80;20201;-71
2021/04/02 01:57:07;;;;;;;2.78;1.94;;;;;;;9.99;61.30;99712.25;2021940;79;20200;-72
2021/04/02 02:00:11;;;;;;;4.93;2.34;;;;;;;9.95;60.72;99712.25;2022240;80;20179;-71
2021/04/02 02:03:14;;;;;;;3.71;1.76;;;;;;;9.91;60.76;99705.34;2029870;79;20311;-72
2021/04/02 02:06:16;;;;;;;4.81;1.56;;;;;;;9.84;60.51;99713.94;2028194;80;20290;-72
2021/04/02 02:09:23;;;;;;;4.61;1.85;;;;;;;9.83;60.00;99709.59;2029048;80;20223;-72
2021/04/02 02:12:24;;;;;;;4.24;1.33;;;;;;;9.80;59.58;99710.47;2028493;80;20163;-72
2021/04/02 02:15:27;;;;;;;5.79;1.67;;;;;;;9.80;59.14;99717.38;2026473;77;20170;-72
2021/04/02 02:18:29;;;;;;;3.59;1.24;;;;;;;9.77;58.84;99719.97;2022947;80;20179;-72
2021/04/02 02:21:32;;;;;;;4.18;1.67;;;;;;;9.74;59.12;99725.16;2022997;80;20196;-72
2021/04/02 02:24:35;;;;;;;4.10;1.46;;;;;;;9.71;59.24;99726.00;2024030;80;20159;-72
2021/04/02 02:27:38;;;;;;;5.10;1.59;;;;;;;9.58;59.37;99719.03;2024066;80;20915;-72
2021/04/02 02:30:42;;;;;;;9.89;2.35;;;;;;;9.56;59.31;99715.56;2024288;77;20314;-72
2021/04/02 02:33:44;;;;;;;3.00;1.50;;;;;;;9.53;59.09;99718.13;2029221;79;20626;-72
2021/04/02 02:36:46;;;;;;;4.89;1.50;;;;;;;9.43;59.20;99713.75;2031617;79;20311;-65
2021/04/02 02:39:48;;;;;;;3.51;1.69;;;;;;;9.38;59.30;99712.00;2029200;79;20199;-65
2021/04/02 02:42:51;;;;;;;3.40;1.30;;;;;;;9.29;59.18;99711.06;2028692;79;20186;-72
2021/04/02 02:45:53;;;;;;;3.31;1.20;;;;;;;9.18;59.39;99716.22;2026688;77;24173;-72
2021/04/02 02:49:00;;;;;;;3.20;1.40;;;;;;;9.12;59.48;99713.56;2023067;80;20189;-71
2021/04/02 02:52:04;;;;;;;5.60;1.60;;;;;;;9.04;59.49;99713.53;2024044;80;20191;-71
2021/04/02 02:55:08;;;;;;;2.51;1.44;;;;;;;8.93;59.59;99715.16;2023605;80;20211;-71
2021/04/02 02:58:12;;;;;;;3.72;1.29;;;;;;;8.87;59.43;99716.84;2023251;80;20200;-71
2021/04/02 03:01:15;;;;;;;7.50;1.51;;;;;;;8.80;59.74;99713.34;2024847;78;20306;-73
2021/04/02 03:04:18;;;;;;;3.30;1.73;;;;;;;8.75;59.53;99715.00;2027580;79;20678;-73
2021/04/02 03:07:21;;;;;;;6.65;1.20;;;;;;;8.69;59.72;99721.03;2027521;79;20567;-71
2021/04/02 03:10:25;;;;;;;3.66;1.35;;;;;;;8.63;59.78;99720.97;2027385;79;20196;-72
2021/04/02 03:13:27;;;;;;;5.82;1.75;;;;;;;8.63;59.85;99708.03;2026625;79;20477;-71
2021/04/02 03:16:31;;;;;;;5.79;1.30;;;;;;;8.61;59.56;99714.03;2024209;77;21422;-71
2021/04/02 03:19:33;;;;;;;5.35;1.54;;;;;;;8.56;59.60;99715.72;2022617;80;20200;-71
2021/04/02 03:22:35;;;;;;;3.61;1.64;;;;;;;8.45;59.75;99713.91;2023074;80;20188;-64
2021/04/02 03:25:40;;;;;;;4.84;1.88;;;;;;;8.40;59.80;99712.97;2021502;80;20197;-64
2021/04/02 03:28:43;;;;;;;4.05;1.20;;;;;;;8.40;60.01;99712.13;2022450;80;20225;-64
2021/04/02 03:31:47;;;;;;;4.85;1.42;;;;;;;8.38;59.73;99722.47;2024643;77;21406;-64
2021/04/02 03:34:51;;;;;;;4.50;1.19;;;;;;;8.28;59.82;99714.56;2026656;79;20204;-72
2021/04/02 03:37:54;;;;;;;4.13;1.30;;;;;;;8.23;59.67;99722.25;2026776;79;20226;-73
2021/04/02 03:40:57;;;;;;;3.94;1.39;;;;;;;8.15;59.82;99721.34;2027057;79;20858;-64
2021/04/02 03:43:59;;;;;;;3.66;1.34;;;;;;;8.06;59.94;99721.22;2027152;79;20543;-64
2021/04/02 03:47:03;;;;;;;4.84;1.30;;;;;;;7.96;60.08;99724.56;2022804;77;21183;-64
2021/04/02 03:50:07;;;;;;;4.91;1.25;;;;;;;7.91;59.20;99718.50;2021711;80;20206;-64
2021/04/02 03:53:20;;;;;;;4.93;1.29;;;;;;;7.93;59.15;99725.41;2022601;80;20207;-64
2021/04/02 03:56:27;;;;;;;3.81;1.26;;;;;;;7.87;59.28;99731.34;2022291;80;20583;-64
2021/04/02 03:59:32;;;;;;;6.74;0.99;;;;;;;7.78;59.26;99725.22;2021946;80;20216;-64
2021/04/02 04:02:35;;;;;;;6.86;1.30;;;;;;;7.77;59.51;99728.66;2021761;78;20573;-64
2021/04/02 04:05:38;;;;;;;4.49;1.19;;;;;;;7.73;59.38;99725.19;2021247;80;20167;-65
2021/04/02 04:08:41;;;;;;;3.28;1.04;;;;;;;7.67;59.22;99731.97;2022584;80;20231;-71
2021/04/02 04:11:44;;;;;;;4.22;1.20;;;;;;;7.67;59.54;99735.41;2021333;80;20174;-71
2021/04/02 04:14:49;;;;;;;3.70;1.01;;;;;;;7.63;59.48;99737.94;2022090;80;20195;-71
2021/04/02 04:17:51;;;;;;;4.91;1.66;;;;;;;7.60;59.20;99740.50;2026236;77;20855;-71
2021/04/02 04:20:55;;;;;;;4.06;1.34;;;;;;;7.58;59.25;99737.91;2026603;79;20240;-73
2021/04/02 04:23:59;;;;;;;6.80;1.42;;;;;;;7.56;59.19;99752.53;2027491;79;20194;-72
2021/04/02 04:27:03;;;;;;;3.38;1.49;;;;;;;7.53;59.09;99747.28;2027962;79;20198;-71
2021/04/02 04:30:09;;;;;;;5.41;1.41;;;;;;;7.48;59.21;99743.78;2026551;79;20194;-72
2021/04/02 04:33:12;;;;;;;3.40;0.95;;;;;;;7.43;59.24;99753.19;2022411;77;20244;-72
2021/04/02 04:36:16;;;;;;;2.78;1.29;;;;;;;7.34;59.69;99750.47;2025731;80;20204;-71
2021/04/02 04:39:18;;;;;;;4.40;1.38;;;;;;;7.25;59.62;99749.50;2022661;80;20258;-71
2021/04/02 04:42:22;;;;;;;4.84;1.56;;;;;;;7.26;59.79;99753.81;2021885;80;20233;-71
2021/04/02 04:45:25;;;;;;;5.38;1.17;;;;;;;7.19;59.63;99752.00;2021132;77;22381;-71
2021/04/02 04:48:26;;;;;;;6.56;1.40;;;;;;;7.13;59.88;99751.88;2027189;79;20191;-71
2021/04/02 04:51:32;;;;;;;3.17;0.98;;;;;;;7.04;59.96;99751.75;2026645;79;20343;-71
2021/04/02 04:54:34;;;;;;;5.44;1.31;;;;;;;7.00;59.99;99754.25;2027380;79;20603;-72
2021/04/02 04:57:38;;;;;;;4.13;1.33;;;;;;;6.96;60.10;99751.63;2026915;79;20319;-72
2021/04/02 05:00:45;;;;;;;6.77;1.69;;;;;;;6.88;60.43;99752.34;2025518;77;22259;-72
2021/04/02 05:03:47;;;;;;;4.45;1.20;;;;;;;6.85;60.51;99754.91;2021325;80;20199;-71
2021/04/02 05:06:55;;;;;;;9.75;1.52;;;;;;;6.79;60.39;99754.78;2022381;80;20300;-71
2021/04/02 05:09:58;;;;;;;5.07;1.85;;;;;;;6.73;60.67;99757.25;2022065;80;21059;-72
2021/04/02 05:13:02;;;;;;;5.22;1.13;;;;;;;6.70;60.76;99765.81;2021724;80;20410;-71
2021/04/02 05:16:05;;;;;;;5.04;1.38;;;;;;;6.64;60.87;99758.84;2023527;79;20202;-71
2021/04/02 05:19:09;;;;;;;4.41;1.30;;;;;;;6.60;61.18;99766.50;2027655;79;20291;-72
2021/04/02 05:22:11;;;;;;;3.35;1.25;;;;;;;6.55;61.30;99770.72;2027071;80;20742;-72
2021/04/02 05:25:13;;;;;;;4.90;1.15;;;;;;;6.48;61.20;99769.75;2026877;80;20857;-72
2021/04/02 05:28:16;;;;;;;7.24;2.66;;;;;;;6.42;61.36;99769.63;2027638;79;20345;-71
2021/04/02 05:31:18;;;;;;;2.86;1.17;;;;;;;6.36;61.47;99778.13;2024327;77;22551;-71
2021/04/02 05:34:19;;;;;;;4.70;1.40;;;;;;;6.40;61.70;99773.00;2021314;80;20350;-71
2021/04/02 05:37:21;;;;;;;2.64;1.39;;;;;;;6.38;61.69;99770.41;2022249;80;20891;-71
2021/04/02 05:40:23;;;;;;;5.70;2.56;;;;;;;6.27;62.19;99767.63;2021493;80;20304;-71
2021/04/02 05:43:31;;;;;;;3.84;1.31;;;;;;;6.25;62.35;99764.16;2021830;80;20446;-71
2021/04/02 05:46:36;;;;;;;3.86;1.71;;;;;;;6.31;62.39;99773.72;2023750;77;20323;-71
2021/04/02 05:49:39;;;;;;;4.36;1.34;;;;;;;6.34;62.36;99766.91;2027191;79;20311;-71
2021/04/02 05:52:44;;;;;;;7.26;1.67;;;;;;;6.41;62.06;99762.72;2027363;79;20318;-71
2021/04/02 05:55:46;;;;;;;4.68;1.46;;;;;;;6.46;62.00;99768.81;2026786;80;20358;-71
2021/04/02 05:58:49;;;;;;;5.60;1.49;;;;;;;6.53;62.01;99772.41;2027929;79;20175;-71
2021/04/02 06:01:51;;;;;;;2.51;1.73;;;;;;;6.57;61.88;99772.47;2023741;77;20487;-71
2021/04/02 06:04:53;;;;;;;3.64;1.56;;;;;;;6.68;61.88;99777.84;2025384;80;20323;-71
2021/04/02 06:07:56;;;;;;;3.76;1.46;;;;;;;6.78;61.57;99776.25;2019457;80;20808;-70
2021/04/02 06:10:58;;;;;;;5.80;1.50;;;;;;;6.88;61.26;99766.13;2019692;80;20325;-71
2021/04/02 06:13:59;;;;;;;4.86;1.51;;;;;;;7.04;61.03;99775.00;2020278;80;20304;-72
2021/04/02 06:17:01;;;;;;;6.96;1.60;;;;;;;7.22;60.49;99772.69;2019325;77;22364;-72
2021/04/02 06:20:05;;;;;;;3.84;1.46;;;;;;;7.46;59.70;99776.47;2020233;80;20308;-71
2021/04/02 06:23:08;;;;;;;3.92;1.31;;;;;;;7.85;58.84;99779.59;2019929;80;20210;-71
2021/04/02 06:26:11;;;;;;;4.24;1.69;;;;;;;8.29;57.59;99775.81;2020348;80;20188;-72
2021/04/02 06:29:13;;;;;;;4.34;1.74;;;;;;;8.46;56.28;99782.06;2020941;80;20240;-72
2021/04/02 06:32:33;;;;;;;2.90;1.59;;;;;;;9.24;54.78;99780.16;2022898;77;20697;-73
2021/04/02 06:35:44;;;;;;;5.05;1.61;;;;;;;9.98;52.06;99787.47;2024631;79;20331;-71
2021/04/02 06:38:49;;;;;;;3.90;1.60;;;;;;;10.51;50.90;99789.41;2026528;79;21124;-73
2021/04/02 06:41:54;;;;;;;3.06;1.40;;;;;;;10.98;49.49;99791.22;2022647;79;20187;-71
2021/04/02 06:45:04;;;;;;;4.11;1.63;;;;;;;11.25;48.71;99796.41;2024637;79;20186;-71
2021/04/02 06:48:11;;;;;;;4.80;1.76;;;;;;;11.45;47.45;99788.59;2020069;77;21683;-71
2021/04/02 06:51:17;;;;;;;3.91;1.60;;;;;;;11.40;47.44;99798.13;2019436;80;20255;-71
2021/04/02 06:54:25;;;;;;;6.11;1.71;;;;;;;11.61;47.92;99803.28;2020309;80;20191;-73
2021/04/02 06:57:28;;;;;;;3.84;1.36;;;;;;;11.71;47.38;99799.81;2020392;80;20214;-74
2021/04/02 07:00:33;;;;;;;3.08;1.55;;;;;;;11.69;47.15;99811.97;2018820;77;49634;-70
2021/04/02 07:03:35;;;;;;;6.03;2.01;;;;;;;11.83;47.18;99806.72;2019647;80;20269;-71
2021/04/02 07:06:40;;;;;;;5.38;1.89;;;;;;;11.72;46.96;99800.69;2019918;80;20183;-71
2021/04/02 07:09:43;;;;;;;4.54;1.81;;;;;;;11.72;47.19;99808.47;2020043;80;20236;-72
2021/04/02 07:12:49;;;;;;;2.94;1.74;;;;;;;11.72;46.60;99793.75;2019612;80;20211;-71
2021/04/02 07:15:52;;;;;;;3.66;1.84;;;;;;;11.89;46.55;99806.75;2018754;77;20786;-77
2021/04/02 07:18:54;;;;;;;3.66;1.86;;;;;;;11.89;46.05;99803.28;2020343;80;20159;-72
2021/04/02 07:21:57;;;;;;;3.01;1.85;;;;;;;11.95;46.28;99805.84;2019545;80;20191;-71
2021/04/02 07:24:59;;;;;;;5.81;2.24;;;;;;;12.05;46.07;99803.22;2019449;80;20297;-72
2021/04/02 07:28:01;;;;;;;3.03;1.81;;;;;;;12.18;45.93;99809.22;2020379;80;20293;-74
2021/04/02 07:31:04;;;;;;;2.03;1.80;;;;;;;12.26;45.58;99811.81;2022058;77;22395;-73
2021/04/02 07:34:06;;;;;;;4.45;1.55;;;;;;;12.22;45.11;99803.16;2025321;79;20219;-74
2021/04/02 07:37:11;;;;;;;1.90;1.70;;;;;;;12.45;45.04;99807.38;2025859;79;20203;-76
2021/04/02 07:40:13;;;;;;;2.21;1.88;;;;;;;12.55;45.31;99816.84;2025989;79;20239;-74
2021/04/02 07:43:14;;;;;;;2.21;1.65;;;;;;;12.79;44.38;99815.84;2024938;79;20212;-72
2021/04/02 07:46:25;;;;;;;3.49;1.80;;;;;;;12.80;43.67;99812.38;2022551;77;20209;-75
2021/04/02 07:49:30;;;;;;;5.89;1.94;;;;;;;13.04;44.22;99819.13;2021518;80;20192;-75
2021/04/02 07:52:35;;;;;;;3.86;1.95;;;;;;;13.32;43.50;99812.00;2021240;80;20339;-78
2021/04/02 07:55:37;;;;;;;1.71;1.61;;;;;;;13.40;43.07;99816.25;2022527;80;20672;-75
2021/04/02 07:58:47;;;;;;;4.90;2.00;;;;;;;13.20;43.00;99821.66;2023794;80;20230;-79
2021/04/02 08:02:03;;;;;;;2.39;1.75;;;;;;;13.22;42.52;99824.25;2027706;77;22584;-80
2021/04/02 08:05:13;;;;;;;1.83;1.73;;;;;;;13.06;43.16;99825.19;2026171;79;20175;-77
2021/04/02 08:08:15;;;;;;;2.71;1.84;;;;;;;12.94;42.69;99828.78;2025835;79;20251;-77
2021/04/02 08:11:37;;;;;;;5.05;1.96;;;;;;;12.92;42.67;99815.72;2026713;79;20244;-75
2021/04/02 08:14:39;;;;;;;2.84;2.11;;;;;;;13.16;42.77;99813.84;2024646;79;20196;-76
2021/04/02 08:17:41;;;;;;;5.20;2.15;;;;;;;13.55;41.64;99823.09;2019787;79;24643;-75
2021/04/02 08:20:42;;;;;;;1.76;1.66;;;;;;;13.65;41.21;99824.75;2020630;80;20201;-76
2021/04/02 08:23:44;;;;;;;3.41;1.99;;;;;;;13.85;41.43;99827.13;2019793;80;20179;-75
2021/04/02 08:26:46;;;;;;;1.91;1.80;;;;;;;14.10;40.30;99825.09;2021206;80;20727;-75
2021/04/02 08:30:02;;;;;;;2.29;1.73;;;;;;;14.10;40.60;99825.97;2020456;80;20193;-75
2021/04/02 08:33:03;;;;;;;2.16;2.05;;;;;;;14.30;40.19;99825.72;2019923;78;21385;-76
2021/04/02 08:36:05;;;;;;;3.00;2.21;;;;;;;14.37;39.51;99822.16;2019965;80;20188;-76
2021/04/02 08:39:07;;;;;;;2.25;1.92;;;;;;;14.44;39.01;99830.81;2020323;80;21057;-77
2021/04/02 08:42:11;;;;;;;2.42;2.22;;;;;;;14.56;39.45;99825.44;2020078;80;20736;-75
2021/04/02 08:45:13;;;;;;;3.24;1.80;;;;;;;14.65;39.23;99850.56;2024047;79;22352;-73
2021/04/02 08:48:21;;;;;;;3.24;2.01;;;;;;;14.23;38.92;99831.06;2024704;79;20178;-75
2021/04/02 08:51:23;;;;;;;2.90;2.34;;;;;;;13.96;39.72;99829.63;2025477;79;21274;-68
2021/04/02 08:54:25;;;;;;;2.19;2.09;;;;;;;13.79;39.62;99830.66;2025457;79;20186;-69
2021/04/02 08:57:29;;;;;;;2.56;1.66;;;;;;;13.89;39.78;99828.84;2023114;79;20495;-70
2021/04/02 09:00:31;;;;;;;2.85;1.92;;;;;;;13.78;39.53;99831.53;2023775;77;26637;-69
2021/04/02 09:03:33;;;;;;;2.17;1.96;;;;;;;13.87;39.07;99823.63;2024795;79;20194;-69
2021/04/02 09:06:35;;;;;;;1.73;1.59;;;;;;;14.04;39.16;99827.81;2025005;79;20170;-70
2021/04/02 09:09:40;;;;;;;3.14;2.09;;;;;;;14.29;39.39;99826.63;2026404;79;20178;-71
2021/04/02 09:12:48;;;;;;;2.83;2.00;;;;;;;14.25;38.05;99824.06;2026108;79;20162;-70
2021/04/02 09:15:49;;;;;;;2.22;2.13;;;;;;;14.28;38.89;99829.25;2022833;77;22597;-70
2021/04/02 09:18:56;;;;;;;2.04;1.73;;;;;;;14.31;38.23;99829.19;2020445;80;20633;-70
2021/04/02 09:21:58;;;;;;;1.94;1.79;;;;;;;14.37;38.72;99836.97;2020475;80;20182;-70
2021/04/02 09:25:00;;;;;;;3.21;1.92;;;;;;;14.43;38.50;99843.03;2020693;80;20175;-70
2021/04/02 09:28:06;;;;;;;2.06;1.81;;;;;;;14.45;37.97;99836.03;2020766;80;20667;-70
2021/04/02 09:31:22;;;;;;;2.49;2.26;;;;;;;14.62;38.09;99835.78;2021855;79;20564;-70
2021/04/02 09:34:24;;;;;;;2.01;1.86;;;;;;;14.82;37.94;99839.00;2026313;79;20243;-71
2021/04/02 09:37:26;;;;;;;2.16;1.98;;;;;;;14.85;37.68;99826.75;2025919;79;20202;-71
2021/04/02 09:40:29;;;;;;;1.85;1.64;;;;;;;15.05;37.62;99825.56;2026175;79;20203;-71
2021/04/02 09:43:48;;;;;;;3.44;1.76;;;;;;;15.09;37.36;99822.03;2026579;79;20224;-71
2021/04/02 09:46:51;;;;;;;1.96;1.86;;;;;;;15.32;36.30;99823.41;2020963;77;22414;-70
2021/04/02 09:49:54;;;;;;;3.58;1.98;;;;;;;15.32;36.75;99823.41;2021041;80;20181;-71
2021/04/02 09:52:56;;;;;;;1.77;1.66;;;;;;;15.43;36.87;99824.94;2021181;80;20204;-71
2021/04/02 09:55:58;;;;;;;2.10;2.00;;;;;;;15.60;37.16;99837.75;2020655;80;20187;-70
2021/04/02 09:59:00;;;;;;;1.69;1.59;;;;;;;15.49;36.05;99826.59;2021367;80;20200;-71
2021/04/02 10:02:03;;;;;;;2.33;2.15;;;;;;;15.62;37.10;99828.16;2020584;77;32141;-71
2021/04/02 10:05:07;;;;;;;1.84;1.74;;;;;;;15.77;36.33;99820.88;2025026;79;20239;-70
2021/04/02 10:08:09;;;;;;;2.31;1.96;;;;;;;15.86;36.51;99828.59;2025952;79;20669;-70
2021/04/02 10:11:11;;;;;;;2.67;1.94;;;;;;;15.88;35.33;99835.50;2025523;79;20191;-69
2021/04/02 10:14:13;;;;;;;2.53;1.88;;;;;;;15.77;35.58;99813.03;2026240;79;20222;-70
2021/04/02 10:17:16;;;;;;;3.54;1.91;;;;;;;15.93;35.63;99817.09;2020492;77;23880;-69
2021/04/02 10:20:18;;;;;;;2.29;2.10;;;;;;;15.93;35.06;99810.09;2020046;80;20201;-69
2021/04/02 10:23:20;;;;;;;1.96;1.84;;;;;;;15.72;35.09;99807.88;2020251;80;20175;-71
2021/04/02 10:26:22;;;;;;;2.30;1.39;;;;;;;15.59;35.00;99804.63;2019653;80;20232;-72
2021/04/02 10:29:25;;;;;;;2.53;1.76;;;;;;;15.80;35.87;99807.72;2020564;80;20921;-71
2021/04/02 10:32:26;;;;;;;2.06;1.90;;;;;;;16.10;34.71;99806.28;2023411;77;21905;-71
2021/04/02 10:35:29;;;;;;;2.36;2.16;;;;;;;16.31;34.25;99808.44;2024843;79;20170;-71
2021/04/02 10:38:31;;;;;;;1.96;1.79;;;;;;;16.09;33.84;99800.19;2025901;79;20370;-71
2021/04/02 10:41:33;;;;;;;2.53;2.28;;;;;;;15.81;34.36;99796.41;2026382;79;20751;-70
2021/04/02 10:44:35;;;;;;;2.66;1.85;;;;;;;16.12;34.42;99794.00;2024294;79;20216;-70
2021/04/02 10:47:36;;;;;;;1.74;1.64;;;;;;;16.12;34.65;99794.00;2020046;77;20203;-70
2021/04/02 10:50:55;;;;;;;1.64;1.54;;;;;;;16.30;33.86;99789.25;2020438;80;20208;-71
2021/04/02 10:54:03;;;;;;;2.05;1.80;;;;;;;16.36;34.02;99784.78;2020280;80;20732;-72
2021/04/02 10:57:05;;;;;;;1.91;1.77;;;;;;;16.77;33.63;99786.50;2018732;80;20178;-70
2021/04/02 11:00:09;;;;;;;5.38;4.82;;;;;;;16.86;33.45;99786.28;2019446;80;20819;-71
2021/04/02 11:03:11;;;;;;;3.76;2.60;;;;;;;16.94;33.26;99773.00;2024245;77;20178;-71
2021/04/02 11:06:12;;;;;;;5.81;1.98;;;;;;;17.01;33.97;99779.81;2023704;79;20240;-71
2021/04/02 11:09:14;;;;;;;2.17;1.99;;;;;;;16.71;32.38;99774.41;2025030;79;20858;-71
2021/04/02 11:12:16;;;;;;;2.00;1.90;;;;;;;16.33;33.03;99778.69;2024008;79;20216;-70
2021/04/02 11:15:19;;;;;;;2.16;1.95;;;;;;;16.43;34.00;99773.25;2023381;79;20193;-70
2021/04/02 11:18:20;;;;;;;2.04;1.83;;;;;;;16.59;34.34;99782.50;2026458;79;20200;-70
2021/04/02 11:21:22;;;;;;;1.99;1.84;;;;;;;16.44;33.05;99783.72;2024689;79;20174;-73
2021/04/02 11:24:24;;;;;;;2.59;2.40;;;;;;;16.74;33.25;99786.59;2024982;79;20737;-70
2021/04/02 11:27:25;;;;;;;3.41;1.70;;;;;;;16.62;32.50;99785.06;2028820;79;20200;-72
2021/04/02 11:30:27;;;;;;;2.26;2.10;;;;;;;16.70;33.71;99777.06;2023035;77;22583;-71
2021/04/02 11:33:29;;;;;;;2.15;2.05;;;;;;;16.95;32.28;99770.34;2019012;80;20747;-71
2021/04/02 11:36:31;;;;;;;1.85;1.70;;;;;;;17.10;32.71;99769.97;2019446;80;20301;-71
2021/04/02 11:39:33;;;;;;;1.40;1.30;;;;;;;17.24;32.78;99769.63;2019128;80;20243;-71
2021/04/02 11:42:35;;;;;;;1.85;1.69;;;;;;;17.53;32.85;99774.97;2019917;80;20743;-71
2021/04/02 11:45:36;;;;;;;1.65;1.55;;;;;;;17.64;32.10;99772.06;2019343;77;20178;-71
2021/04/02 11:48:38;;;;;;;1.98;1.63;;;;;;;17.58;31.53;99780.09;2024535;79;20233;-71
2021/04/02 11:51:40;;;;;;;2.64;1.92;;;;;;;17.61;32.07;99773.91;2021027;79;20220;-71
2021/04/02 11:54:41;;;;;;;2.25;2.05;;;;;;;17.68;32.51;99762.34;2024203;79;20244;-71
2021/04/02 11:57:43;;;;;;;2.56;2.00;;;;;;;17.39;31.56;99768.34;2026065;79;20178;-71
2021/04/02 12:00:45;;;;;;;2.16;1.91;;;;;;;17.28;31.89;99773.03;2022432;78;20205;-71
2021/04/02 12:03:47;;;;;;;2.80;2.60;;;;;;;17.36;32.40;99752.69;2019976;80;20223;-70
2021/04/02 12:06:48;;;;;;;2.44;1.70;;;;;;;17.37;30.77;99751.78;2023624;80;20171;-69
2021/04/02 12:09:50;;;;;;;3.41;1.98;;;;;;;17.33;32.94;99742.25;2020446;80;20220;-70
2021/04/02 12:12:51;;;;;;;2.34;1.81;;;;;;;17.32;31.07;99743.16;2020481;80;20204;-69
2021/04/02 12:15:53;;;;;;;2.19;1.79;;;;;;;17.64;31.79;99748.41;2022230;77;20323;-70
2021/04/02 12:18:55;;;;;;;1.79;1.65;;;;;;;17.74;32.19;99742.03;2027230;79;20178;-71
2021/04/02 12:21:57;;;;;;;2.59;1.76;;;;;;;17.70;31.63;99742.16;2027168;79;20174;-70
2021/04/02 12:24:58;;;;;;;2.53;2.29;;;;;;;17.98;31.35;99751.00;2026642;79;20206;-69
2021/04/02 12:28:00;;;;;;;2.19;2.05;;;;;;;17.55;30.57;99732.03;2027170;79;20192;-70
2021/04/02 12:31:03;;;;;;;2.04;1.73;;;;;;;17.35;31.81;99730.81;2024553;77;20215;-69
2021/04/02 12:34:05;;;;;;;2.71;1.76;;;;;;;17.41;32.03;99735.88;2021869;80;20255;-68
2021/04/02 12:37:06;;;;;;;1.92;1.79;;;;;;;17.85;32.67;99733.00;2020827;80;20656;-69
2021/04/02 12:40:14;;;;;;;4.26;2.45;;;;;;;18.06;31.39;99724.50;2020714;80;20159;-68
2021/04/02 12:43:16;;;;;;;1.77;1.67;;;;;;;18.29;30.74;99729.03;2019589;80;20314;-79
2021/04/02 12:46:18;;;;;;;1.79;1.56;;;;;;;18.26;30.73;99727.38;2021513;77;84813;-79
2021/04/02 12:49:20;;;;;;;6.07;1.56;;;;;;;18.47;30.46;99720.59;2027366;79;20323;-79
2021/04/02 12:52:21;;;;;;;2.05;1.83;;;;;;;18.30;30.04;99713.22;2026700;79;20190;-76
2021/04/02 12:55:26;;;;;;;1.77;1.67;;;;;;;18.35;29.92;99707.84;2025672;79;20263;-76
2021/04/02 12:58:28;;;;;;;3.84;1.70;;;;;;;18.55;29.90;99694.94;2026362;79;20199;-78
2021/04/02 13:01:30;;;;;;;1.80;1.65;;;;;;;18.79;30.17;99703.81;2023137;77;22213;-79
2021/04/02 13:04:32;;;;;;;1.77;1.58;;;;;;;18.45;29.74;99693.47;2021066;80;20211;-77
2021/04/02 13:07:34;;;;;;;2.84;1.54;;;;;;;18.55;30.14;99680.91;2021090;80;21066;-77
2021/04/02 13:10:36;;;;;;;1.50;1.40;;;;;;;18.66;29.87;99682.31;2020459;80;20240;-76
2021/04/02 13:13:38;;;;;;;3.00;1.59;;;;;;;18.64;29.57;99678.88;2020698;80;20183;-78
2021/04/02 13:16:40;;;;;;;2.97;2.14;;;;;;;18.47;29.15;99686.41;2021294;80;20192;-79
2021/04/02 13:19:42;;;;;;;1.74;1.60;;;;;;;18.50;29.24;99685.47;2021782;80;20868;-75
2021/04/02 13:22:44;;;;;;;4.13;1.64;;;;;;;18.66;29.63;99684.94;2020020;80;20544;-76
2021/04/02 13:25:46;;;;;;;1.42;1.31;;;;;;;18.43;28.91;99675.13;2020516;80;20170;-75
2021/04/02 13:28:47;;;;;;;1.51;1.27;;;;;;;18.67;29.49;99665.63;2020275;80;20178;-76
2021/04/02 13:31:49;;;;;;;2.79;1.69;;;;;;;18.73;29.54;99668.97;2022286;77;22982;-74
2021/04/02 13:34:51;;;;;;;3.44;1.40;;;;;;;18.89;29.21;99662.28;2026767;79;20166;-74
2021/04/02 13:37:54;;;;;;;1.84;1.40;;;;;;;18.98;29.15;99656.69;2027499;80;20298;-74
2021/04/02 13:40:56;;;;;;;2.44;1.40;;;;;;;19.13;29.36;99657.94;2027010;80;20202;-77
2021/04/02 13:43:57;;;;;;;1.60;1.31;;;;;;;19.20;28.86;99657.66;2027557;79;20239;-74
2021/04/02 13:46:59;;;;;;;1.90;1.80;;;;;;;19.10;28.31;99656.28;2022546;77;20217;-75
2021/04/02 13:50:06;;;;;;;2.25;1.52;;;;;;;18.79;28.00;99642.44;2022076;80;20171;-75
2021/04/02 13:53:10;;;;;;;2.01;1.23;;;;;;;18.84;28.20;99641.38;2021900;80;20179;-74
2021/04/02 13:56:12;;;;;;;1.77;1.49;;;;;;;18.86;28.94;99641.34;2021857;80;20211;-75
2021/04/02 13:59:14;;;;;;;2.09;1.58;;;;;;;19.02;29.34;99643.38;2021972;80;20246;-74
2021/04/02 14:02:15;;;;;;;3.01;1.48;;;;;;;19.20;28.63;99633.09;2020873;77;22360;-75
2021/04/02 14:05:19;;;;;;;1.85;1.75;;;;;;;19.16;28.41;99637.63;2021444;80;20183;-74
2021/04/02 14:08:23;;;;;;;2.56;1.90;;;;;;;18.86;27.48;99636.09;2021669;80;20650;-73
2021/04/02 14:11:25;;;;;;;2.60;2.25;;;;;;;18.31;28.17;99635.22;2021825;80;20259;-74
2021/04/02 14:14:29;;;;;;;1.70;1.59;;;;;;;18.18;28.93;99632.13;2025104;80;20179;-78
2021/04/02 14:17:31;;;;;;;1.90;1.77;;;;;;;18.14;29.72;99633.16;2026212;77;21410;-74
2021/04/02 14:20:37;;;;;;;2.31;2.13;;;;;;;18.33;30.42;99644.81;2028478;79;20260;-75
2021/04/02 14:23:55;;;;;;;1.51;1.41;;;;;;;18.07;30.09;99623.72;2028257;79;20221;-78
2021/04/02 14:26:56;;;;;;;2.61;1.88;;;;;;;18.31;30.96;99630.84;2028149;79;20272;-75